Time;durP1;ratioP1;P1;durP2;ratioP2;P2;SDS_P1;SDS_P2;PMS_P1;PMS_P2;Temp;Humidity;BMP_temperature;BMP_pressure;BME280_temperature;BME280_humidity;BME280_pressure;Samples;Min_cycle;Max_cycle;Signal;HPM_P1;HPM_P2
2021/08/09 00:01:41;;;;;;;15.80;3.58;;;15.60;99.90;;;;;;5054761;28;20025;-77
2021/08/09 00:04:07;;;;;;;15.20;3.00;;;15.60;99.90;;;;;;5049436;28;20029;-75
2021/08/09 00:06:33;;;;;;;16.67;2.80;;;15.60;99.90;;;;;;5045555;28;20073;-76
2021/08/09 00:09:00;;;;;;;11.13;2.17;;;15.60;99.90;;;;;;5052130;28;20093;-76
2021/08/09 00:11:26;;;;;;;9.27;2.03;;;15.60;99.90;;;;;;5054374;28;20069;-76
2021/08/09 00:13:51;;;;;;;9.18;2.50;;;15.60;99.90;;;;;;5053748;28;20397;-77
2021/08/09 00:16:17;;;;;;;14.15;2.30;;;15.50;99.90;;;;;;5053695;28;20102;-76
2021/08/09 00:18:46;;;;;;;17.95;4.03;;;15.60;99.90;;;;;;5048717;28;20095;-77
2021/08/09 00:21:13;;;;;;;15.55;2.60;;;15.60;99.90;;;;;;5052785;28;20025;-77
2021/08/09 00:23:38;;;;;;;15.13;2.83;;;15.60;99.90;;;;;;5053195;28;20017;-77
2021/08/09 00:26:04;;;;;;;10.70;2.28;;;15.50;99.90;;;;;;5053126;28;20036;-74
2021/08/09 00:28:29;;;;;;;8.25;2.50;;;15.50;99.90;;;;;;5055032;28;20579;-76
2021/08/09 00:30:55;;;;;;;21.65;4.05;;;15.50;99.90;;;;;;5050703;28;20021;-76
2021/08/09 00:33:21;;;;;;;18.42;3.70;;;15.50;99.90;;;;;;5052163;28;21318;-76
2021/08/09 00:35:47;;;;;;;11.00;2.10;;;15.50;99.90;;;;;;5053242;28;20118;-77
2021/08/09 00:38:12;;;;;;;7.60;2.38;;;15.50;99.90;;;;;;5053401;28;20024;-77
2021/08/09 00:40:38;;;;;;;11.23;3.05;;;15.60;99.90;;;;;;5054397;28;20033;-76
2021/08/09 00:43:04;;;;;;;14.05;3.22;;;15.50;99.90;;;;;;5051872;28;20851;-76
2021/08/09 00:45:29;;;;;;;17.55;2.97;;;15.60;99.90;;;;;;5051661;28;20025;-76
2021/08/09 00:47:55;;;;;;;13.35;3.22;;;15.50;99.90;;;;;;5052808;28;20025;-78
2021/08/09 00:50:21;;;;;;;12.43;2.55;;;15.50;99.90;;;;;;5054494;28;20495;-78
2021/08/09 00:52:47;;;;;;;14.38;2.85;;;15.50;99.90;;;;;;5052749;28;20104;-76
2021/08/09 00:55:13;;;;;;;12.75;2.90;;;15.50;99.90;;;;;;5050225;28;20029;-77
2021/08/09 00:57:39;;;;;;;8.00;2.65;;;15.50;99.90;;;;;;5053122;28;20461;-76
2021/08/09 01:00:05;;;;;;;14.13;2.60;;;15.40;99.90;;;;;;5067378;28;20049;-77
2021/08/09 01:02:31;;;;;;;10.73;2.10;;;15.40;99.90;;;;;;5054422;28;20032;-77
2021/08/09 01:05:01;;;;;;;5.78;2.53;;;15.40;99.90;;;;;;5051155;28;20029;-76
2021/08/09 01:07:35;;;;;;;9.82;2.03;;;15.40;99.90;;;;;;5050513;28;20029;-76
2021/08/09 01:10:27;;;;;;;7.53;2.55;;;15.40;99.90;;;;;;5048493;28;20404;-76
2021/08/09 01:13:00;;;;;;;20.90;2.85;;;15.40;99.90;;;;;;5050151;28;20029;-75
2021/08/09 01:15:32;;;;;;;6.90;2.78;;;15.40;99.90;;;;;;5055031;28;20017;-76
2021/08/09 01:18:01;;;;;;;11.05;2.95;;;15.40;99.90;;;;;;5050119;28;20036;-76
2021/08/09 01:20:45;;;;;;;9.30;2.90;;;15.40;99.90;;;;;;5051244;28;20014;-79
2021/08/09 01:23:42;;;;;;;15.10;2.33;;;15.40;99.90;;;;;;5053379;28;20029;-79
2021/08/09 01:26:10;;;;;;;16.00;2.53;;;15.40;99.90;;;;;;5063622;28;20499;-77
2021/08/09 01:28:37;;;;;;;18.90;2.53;;;15.40;99.90;;;;;;5051175;28;20056;-78
2021/08/09 01:31:06;;;;;;;13.38;2.33;;;15.40;99.90;;;;;;5045659;28;20037;-76
2021/08/09 01:33:34;;;;;;;13.07;2.13;;;15.30;99.90;;;;;;5050128;28;20063;-75
2021/08/09 01:36:02;;;;;;;22.27;2.72;;;15.30;99.90;;;;;;5047548;28;20170;-75
2021/08/09 01:38:29;;;;;;;8.82;2.80;;;15.30;99.90;;;;;;5049679;28;20519;-75
2021/08/09 01:40:56;;;;;;;7.15;2.28;;;15.30;99.90;;;;;;5052217;28;20075;-75
2021/08/09 01:43:24;;;;;;;25.52;3.13;;;15.40;99.90;;;;;;5050400;28;20104;-75
2021/08/09 01:45:52;;;;;;;19.60;3.50;;;15.30;99.90;;;;;;5050821;28;20445;-75
2021/08/09 01:48:18;;;;;;;8.00;2.35;;;15.30;99.90;;;;;;5047897;28;20028;-75
2021/08/09 01:50:44;;;;;;;14.30;2.65;;;15.20;99.90;;;;;;5050922;28;20045;-76
2021/08/09 01:53:10;;;;;;;13.48;3.13;;;15.30;99.90;;;;;;5049761;28;20039;-75
2021/08/09 01:55:37;;;;;;;14.52;2.20;;;15.20;99.90;;;;;;5050074;28;20025;-75
2021/08/09 01:58:03;;;;;;;12.77;2.80;;;15.30;99.90;;;;;;5050457;28;20025;-75
2021/08/09 02:00:29;;;;;;;15.02;3.08;;;15.20;99.90;;;;;;5071040;28;20075;-75
2021/08/09 02:02:55;;;;;;;8.88;2.20;;;15.20;99.90;;;;;;5057732;28;20037;-75
2021/08/09 02:05:21;;;;;;;12.43;2.55;;;15.20;99.90;;;;;;5057662;28;20029;-76
2021/08/09 02:07:48;;;;;;;15.38;2.97;;;15.10;99.90;;;;;;5057691;28;20074;-76
2021/08/09 02:10:18;;;;;;;12.82;3.38;;;15.20;99.90;;;;;;5061201;28;20025;-75
2021/08/09 02:13:00;;;;;;;11.40;2.70;;;15.10;99.90;;;;;;5057936;28;20033;-75
2021/08/09 02:15:44;;;;;;;9.65;2.92;;;15.10;99.90;;;;;;5055552;28;20564;-75
2021/08/09 02:18:44;;;;;;;19.58;2.95;;;15.10;99.90;;;;;;5060636;28;20033;-75
2021/08/09 02:21:18;;;;;;;14.13;2.50;;;15.10;99.90;;;;;;5055673;28;20477;-75
2021/08/09 02:23:54;;;;;;;18.67;3.75;;;15.10;99.90;;;;;;5056715;28;20021;-76
2021/08/09 02:26:46;;;;;;;15.32;3.70;;;15.10;99.90;;;;;;5057715;28;20021;-75
2021/08/09 02:29:21;;;;;;;15.70;2.63;;;15.10;99.90;;;;;;5070485;28;20047;-75
2021/08/09 02:31:50;;;;;;;14.18;2.70;;;15.20;99.90;;;;;;5061655;28;20495;-76
2021/08/09 02:34:18;;;;;;;11.07;2.28;;;15.10;99.90;;;;;;5060601;28;20040;-76
2021/08/09 02:36:44;;;;;;;23.58;2.25;;;15.10;99.90;;;;;;5062131;28;20036;-76
2021/08/09 02:39:11;;;;;;;10.85;2.17;;;15.10;99.90;;;;;;5059163;28;20104;-76
2021/08/09 02:41:37;;;;;;;13.02;2.50;;;15.10;99.90;;;;;;5061123;28;20013;-75
2021/08/09 02:44:03;;;;;;;10.48;2.75;;;15.10;99.90;;;;;;5061435;28;20024;-75
2021/08/09 02:46:31;;;;;;;9.20;2.13;;;15.10;99.90;;;;;;5057978;28;20021;-75
2021/08/09 02:48:58;;;;;;;15.57;4.55;;;15.10;99.90;;;;;;5054785;28;20013;-75
2021/08/09 02:51:24;;;;;;;16.05;3.83;;;15.10;99.90;;;;;;5072411;28;20027;-75
2021/08/09 02:53:51;;;;;;;20.60;4.35;;;15.10;99.90;;;;;;5057623;28;20112;-75
2021/08/09 02:56:21;;;;;;;13.80;2.60;;;15.00;99.90;;;;;;5057533;28;20036;-75
2021/08/09 02:58:46;;;;;;;15.30;3.13;;;15.00;99.90;;;;;;5057134;28;20055;-76
2021/08/09 03:01:15;;;;;;;14.38;2.40;;;15.00;99.90;;;;;;5056595;28;20100;-75
2021/08/09 03:03:42;;;;;;;13.20;2.88;;;15.10;99.90;;;;;;5054919;28;20029;-75
2021/08/09 03:06:11;;;;;;;11.13;2.33;;;15.10;99.90;;;;;;5056057;28;20028;-75
2021/08/09 03:08:37;;;;;;;13.55;2.58;;;15.10;99.90;;;;;;5071892;28;20377;-75
2021/08/09 03:11:03;;;;;;;12.15;2.83;;;15.10;99.90;;;;;;5053663;28;20111;-75
2021/08/09 03:13:29;;;;;;;8.98;2.55;;;15.10;99.90;;;;;;5053725;28;20104;-75
2021/08/09 03:15:54;;;;;;;10.10;3.25;;;15.00;99.90;;;;;;5052244;28;20043;-75
2021/08/09 03:18:20;;;;;;;9.05;2.92;;;15.00;99.90;;;;;;5053472;28;20029;-75
2021/08/09 03:20:46;;;;;;;23.20;4.55;;;15.00;99.90;;;;;;5054043;28;20021;-75
2021/08/09 03:23:11;;;;;;;9.00;3.70;;;15.00;99.90;;;;;;5052912;28;20033;-75
2021/08/09 03:25:38;;;;;;;13.00;3.60;;;15.00;99.90;;;;;;5052504;28;20024;-75
2021/08/09 03:28:07;;;;;;;11.80;3.35;;;15.00;99.90;;;;;;5055733;28;20461;-75
2021/08/09 03:30:32;;;;;;;14.18;3.33;;;15.00;99.90;;;;;;5053395;28;20048;-75
2021/08/09 03:32:58;;;;;;;21.00;4.85;;;15.00;99.90;;;;;;5053251;28;20037;-75
2021/08/09 03:35:24;;;;;;;14.02;2.50;;;15.10;99.90;;;;;;5051631;28;20393;-75
2021/08/09 03:37:50;;;;;;;11.27;3.28;;;15.10;99.90;;;;;;5053150;28;20458;-76
2021/08/09 03:40:15;;;;;;;13.40;2.63;;;15.10;99.90;;;;;;5053035;28;20107;-75
2021/08/09 03:42:41;;;;;;;15.98;2.90;;;15.10;99.90;;;;;;5052049;28;20024;-76
2021/08/09 03:45:07;;;;;;;18.92;4.03;;;15.10;99.90;;;;;;5054872;28;20017;-75
2021/08/09 03:47:33;;;;;;;11.68;2.58;;;15.10;99.90;;;;;;5053107;28;20368;-75
2021/08/09 03:49:59;;;;;;;16.35;2.75;;;15.10;99.90;;;;;;5055535;28;20029;-75
2021/08/09 03:52:25;;;;;;;16.08;3.33;;;15.10;99.90;;;;;;5050998;28;20032;-75
2021/08/09 03:54:50;;;;;;;12.23;2.22;;;15.20;99.90;;;;;;5052964;28;20029;-76
2021/08/09 03:57:16;;;;;;;18.33;4.10;;;15.10;99.90;;;;;;5052820;28;20110;-75
2021/08/09 03:59:41;;;;;;;13.75;3.00;;;15.10;99.90;;;;;;5051237;28;20033;-76
2021/08/09 04:02:12;;;;;;;19.33;3.53;;;15.10;99.90;;;;;;5052211;28;20135;-75
2021/08/09 04:04:38;;;;;;;9.75;2.55;;;15.10;99.90;;;;;;5052023;28;20490;-75
2021/08/09 04:07:03;;;;;;;19.38;2.80;;;15.10;99.90;;;;;;5051817;28;20040;-75
2021/08/09 04:09:29;;;;;;;22.90;2.85;;;15.10;99.90;;;;;;5050409;28;20435;-76
2021/08/09 04:11:54;;;;;;;14.30;2.83;;;15.10;99.90;;;;;;5054084;28;20067;-75
2021/08/09 04:14:20;;;;;;;13.48;3.72;;;15.10;99.90;;;;;;5051223;28;20472;-75
2021/08/09 04:16:46;;;;;;;9.82;3.45;;;15.10;99.90;;;;;;5068850;28;20539;-75
2021/08/09 04:19:11;;;;;;;10.57;2.72;;;15.10;99.90;;;;;;5052402;28;20450;-76
2021/08/09 04:21:37;;;;;;;10.13;2.35;;;15.10;99.90;;;;;;5053813;28;20036;-75
2021/08/09 04:24:03;;;;;;;20.20;3.97;;;15.10;99.90;;;;;;5049506;28;20021;-75
2021/08/09 04:26:28;;;;;;;12.82;3.20;;;15.00;99.90;;;;;;5054934;28;20033;-75
2021/08/09 04:28:54;;;;;;;11.90;2.55;;;15.10;99.90;;;;;;5051883;28;20032;-75
2021/08/09 04:31:20;;;;;;;14.75;3.22;;;15.00;99.90;;;;;;5051300;28;20044;-75
2021/08/09 04:33:47;;;;;;;14.57;3.40;;;15.10;99.90;;;;;;5050971;28;20524;-75
2021/08/09 04:36:13;;;;;;;13.10;2.37;;;15.00;99.90;;;;;;5057131;28;20551;-76
2021/08/09 04:38:40;;;;;;;7.55;1.92;;;15.10;99.90;;;;;;5050507;28;20359;-75
2021/08/09 04:41:07;;;;;;;9.48;2.22;;;15.10;99.90;;;;;;5051544;28;20032;-76
2021/08/09 04:43:38;;;;;;;17.10;2.65;;;15.10;99.90;;;;;;5051466;28;20017;-75
2021/08/09 04:46:05;;;;;;;10.95;2.75;;;15.10;99.90;;;;;;5055319;28;20029;-76
2021/08/09 04:48:31;;;;;;;8.93;3.35;;;15.10;99.90;;;;;;5050716;28;20111;-76
2021/08/09 04:50:57;;;;;;;12.40;2.65;;;15.10;99.90;;;;;;5055718;28;20171;-76
2021/08/09 04:53:23;;;;;;;19.52;2.78;;;15.10;99.90;;;;;;5052859;28;20104;-76
2021/08/09 04:55:48;;;;;;;11.32;2.22;;;15.10;99.90;;;;;;5051743;28;20024;-76
2021/08/09 04:58:14;;;;;;;16.17;3.08;;;15.10;99.90;;;;;;5050568;28;20045;-75
2021/08/09 05:00:40;;;;;;;6.07;2.10;;;15.10;99.90;;;;;;5050317;28;20031;-75
2021/08/09 05:03:05;;;;;;;11.18;2.88;;;15.10;99.90;;;;;;5050708;28;20024;-76
2021/08/09 05:05:31;;;;;;;9.32;2.20;;;15.20;99.90;;;;;;5050177;28;20025;-76
2021/08/09 05:07:57;;;;;;;12.27;2.42;;;15.20;99.90;;;;;;5050587;28;20027;-75
2021/08/09 05:10:24;;;;;;;9.32;2.45;;;15.20;99.90;;;;;;5050253;28;20035;-76
2021/08/09 05:12:49;;;;;;;13.05;2.88;;;15.20;99.90;;;;;;5051364;28;20037;-75
2021/08/09 05:15:15;;;;;;;10.70;4.07;;;15.30;99.90;;;;;;5051652;28;20032;-76
2021/08/09 05:17:41;;;;;;;16.10;2.42;;;15.30;99.90;;;;;;5067998;28;20044;-76
2021/08/09 05:20:08;;;;;;;22.02;2.42;;;15.30;99.90;;;;;;5050996;28;20385;-75
2021/08/09 05:22:34;;;;;;;18.67;3.00;;;15.30;99.90;;;;;;5052923;28;20457;-76
2021/08/09 05:25:00;;;;;;;8.10;2.30;;;15.30;99.90;;;;;;5052404;28;20147;-75
2021/08/09 05:27:26;;;;;;;9.15;2.42;;;15.30;99.90;;;;;;5053047;28;20048;-75
2021/08/09 05:29:51;;;;;;;9.80;2.60;;;15.40;99.90;;;;;;5053361;28;20037;-75
2021/08/09 05:32:17;;;;;;;17.60;3.10;;;15.30;99.90;;;;;;5051245;28;20227;-76
2021/08/09 05:34:46;;;;;;;9.68;2.03;;;15.30;99.90;;;;;;5054505;28;20017;-76
2021/08/09 05:37:15;;;;;;;8.48;2.53;;;15.30;99.90;;;;;;5054850;28;20044;-76
2021/08/09 05:39:41;;;;;;;11.00;2.47;;;15.30;99.90;;;;;;5054795;28;20481;-76
2021/08/09 05:42:08;;;;;;;9.30;2.47;;;15.40;99.90;;;;;;5055248;28;20490;-77
2021/08/09 05:44:34;;;;;;;8.10;2.13;;;15.30;99.90;;;;;;5059247;28;20013;-77
2021/08/09 05:46:59;;;;;;;11.88;2.50;;;15.30;99.90;;;;;;5065199;28;20080;-79
2021/08/09 05:49:25;;;;;;;11.98;2.67;;;15.30;99.90;;;;;;5070322;28;20099;-78
2021/08/09 05:51:51;;;;;;;14.55;2.78;;;15.30;99.90;;;;;;5060381;28;20024;-80
2021/08/09 05:54:16;;;;;;;11.63;2.70;;;15.40;99.90;;;;;;5055488;28;20041;-80
2021/08/09 05:56:42;;;;;;;13.57;2.50;;;15.40;99.90;;;;;;5044207;28;20052;-80
2021/08/09 05:59:07;;;;;;;14.65;2.28;;;15.50;99.90;;;;;;5043100;28;20050;-76
2021/08/09 06:01:34;;;;;;;12.35;2.42;;;15.50;99.90;;;;;;5046994;28;20488;-75
2021/08/09 06:03:59;;;;;;;15.13;3.88;;;15.60;99.90;;;;;;5043450;28;20099;-76
2021/08/09 06:06:25;;;;;;;8.90;2.45;;;15.60;99.90;;;;;;5045348;28;20468;-76
2021/08/09 06:08:51;;;;;;;16.40;2.70;;;15.70;99.90;;;;;;5048481;28;20068;-77
2021/08/09 06:11:17;;;;;;;8.02;1.92;;;15.80;99.90;;;;;;5053779;28;20119;-83
2021/08/09 06:13:43;;;;;;;17.75;2.60;;;15.90;99.90;;;;;;5064371;28;20404;-77
2021/08/09 06:16:09;;;;;;;14.88;2.15;;;15.90;99.90;;;;;;5055911;28;20028;-75
2021/08/09 06:18:35;;;;;;;5.85;2.47;;;16.10;99.90;;;;;;5056185;28;20040;-75
2021/08/09 06:21:02;;;;;;;5.77;2.37;;;16.20;99.90;;;;;;5050260;28;20435;-77
2021/08/09 06:23:28;;;;;;;10.53;2.27;;;16.30;99.90;;;;;;5051971;28;20025;-76
2021/08/09 06:25:54;;;;;;;8.13;2.67;;;16.50;99.90;;;;;;5049514;28;20116;-74
2021/08/09 06:28:21;;;;;;;10.80;2.60;;;16.60;99.90;;;;;;5050583;28;20032;-74
2021/08/09 06:30:47;;;;;;;6.07;1.90;;;16.60;99.90;;;;;;5049782;28;20060;-74
2021/08/09 06:33:13;;;;;;;14.73;2.67;;;16.70;99.90;;;;;;5049083;28;20028;-74
2021/08/09 06:35:38;;;;;;;7.90;2.33;;;16.80;99.90;;;;;;5058874;28;20491;-73
2021/08/09 06:38:06;;;;;;;10.65;2.03;;;16.90;99.90;;;;;;5050395;28;20381;-73
2021/08/09 06:40:33;;;;;;;5.32;1.83;;;16.90;99.90;;;;;;5047178;28;20029;-73
2021/08/09 06:43:01;;;;;;;9.38;2.33;;;16.80;99.90;;;;;;5047470;28;20032;-74
2021/08/09 06:45:26;;;;;;;;;;;16.90;99.90;;;;;;5053768;28;20025;-74
2021/08/09 06:47:52;;;;;;;9.00;2.15;;;16.90;99.90;;;;;;5053377;28;19909;-73
2021/08/09 06:50:17;;;;;;;7.45;1.83;;;17.00;99.90;;;;;;5054530;28;20028;-75
2021/08/09 06:52:43;;;;;;;7.60;2.30;;;17.20;99.90;;;;;;5047260;28;20114;-74
2021/08/09 06:55:09;;;;;;;12.25;2.22;;;17.30;99.90;;;;;;5052972;28;20018;-74
2021/08/09 06:57:34;;;;;;;12.50;2.13;;;17.30;99.90;;;;;;5056429;28;20033;-75
2021/08/09 07:00:01;;;;;;;13.98;3.10;;;17.50;99.90;;;;;;5053795;28;20118;-74
2021/08/09 07:02:28;;;;;;;14.18;1.90;;;17.50;99.90;;;;;;5056512;28;20143;-74
2021/08/09 07:04:53;;;;;;;7.38;1.95;;;17.60;99.90;;;;;;5052070;28;20021;-74
2021/08/09 07:07:19;;;;;;;12.27;2.25;;;17.60;99.90;;;;;;5053656;28;20033;-74
2021/08/09 07:09:45;;;;;;;7.22;2.72;;;17.60;99.90;;;;;;5054479;28;20095;-74
2021/08/09 07:12:10;;;;;;;10.35;2.05;;;17.80;99.90;;;;;;5053914;28;20029;-75
2021/08/09 07:14:36;;;;;;;14.70;2.70;;;18.00;99.90;;;;;;5055880;28;20064;-75
2021/08/09 07:17:03;;;;;;;7.82;2.05;;;18.10;99.90;;;;;;5055503;28;20061;-75
2021/08/09 07:19:29;;;;;;;6.55;2.63;;;18.20;99.90;;;;;;5053447;28;20021;-72
2021/08/09 07:21:54;;;;;;;9.20;2.42;;;18.20;99.90;;;;;;5054819;28;20424;-72
2021/08/09 07:24:20;;;;;;;12.48;1.90;;;18.30;99.90;;;;;;5054439;28;20025;-73
2021/08/09 07:26:45;;;;;;;7.82;2.58;;;18.40;99.90;;;;;;5051213;28;20465;-73
2021/08/09 07:29:11;;;;;;;5.82;2.63;;;18.40;99.90;;;;;;5052178;28;20036;-75
2021/08/09 07:31:37;;;;;;;3.55;1.52;;;18.60;99.90;;;;;;5051411;28;20082;-74
2021/08/09 07:34:02;;;;;;;8.80;2.28;;;18.60;99.90;;;;;;5056574;28;20113;-74
2021/08/09 07:36:28;;;;;;;6.93;1.75;;;18.80;99.90;;;;;;5050536;28;20025;-73
2021/08/09 07:38:54;;;;;;;5.13;1.83;;;18.80;99.90;;;;;;5055730;28;20469;-73
2021/08/09 07:41:19;;;;;;;11.55;1.95;;;18.90;99.90;;;;;;5054383;28;20043;-73
2021/08/09 07:43:47;;;;;;;9.90;2.03;;;19.00;99.90;;;;;;5054312;28;20469;-74
2021/08/09 07:46:12;;;;;;;7.72;1.63;;;19.00;99.90;;;;;;5055155;28;20021;-74
2021/08/09 07:48:39;;;;;;;7.40;1.83;;;19.00;99.90;;;;;;5051891;28;20036;-73
2021/08/09 07:51:04;;;;;;;5.60;1.55;;;19.00;99.90;;;;;;5049847;28;20035;-75
2021/08/09 07:53:30;;;;;;;4.05;1.30;;;19.10;99.90;;;;;;5035207;28;20021;-73
2021/08/09 07:55:56;;;;;;;7.38;1.75;;;19.30;99.90;;;;;;5056916;28;20104;-74
2021/08/09 07:58:21;;;;;;;3.33;1.33;;;19.40;99.90;;;;;;5054336;28;20057;-74
2021/08/09 08:00:47;;;;;;;3.08;1.02;;;19.60;99.90;;;;;;5051830;28;20464;-74
2021/08/09 08:03:13;;;;;;;8.43;2.47;;;19.60;99.90;;;;;;5053451;28;20029;-74
2021/08/09 08:05:38;;;;;;;3.78;1.13;;;19.60;99.90;;;;;;5061726;28;20020;-74
2021/08/09 08:08:05;;;;;;;5.20;2.00;;;19.50;99.90;;;;;;5057085;28;20066;-75
2021/08/09 08:10:31;;;;;;;5.63;1.83;;;19.40;99.90;;;;;;5053945;28;20025;-74
2021/08/09 08:12:58;;;;;;;4.40;1.98;;;19.10;99.90;;;;;;5053690;28;20380;-75
2021/08/09 08:15:24;;;;;;;10.13;1.90;;;19.00;99.90;;;;;;5056605;28;20029;-73
2021/08/09 08:17:49;;;;;;;6.07;1.50;;;18.90;99.90;;;;;;5055022;28;20040;-73
2021/08/09 08:20:15;;;;;;;5.32;1.50;;;18.80;99.90;;;;;;5044819;28;20021;-74
2021/08/09 08:22:42;;;;;;;12.15;1.58;;;18.80;99.90;;;;;;5053376;28;20056;-74
2021/08/09 08:25:08;;;;;;;7.85;1.52;;;18.70;99.90;;;;;;5053341;28;20381;-74
2021/08/09 08:27:34;;;;;;;5.10;2.03;;;18.70;99.90;;;;;;5053198;28;20507;-74
2021/08/09 08:30:00;;;;;;;7.07;1.33;;;18.70;99.90;;;;;;5057329;28;20025;-74
2021/08/09 08:32:26;;;;;;;8.50;2.53;;;18.70;99.90;;;;;;5073692;28;20104;-75
2021/08/09 08:34:52;;;;;;;6.30;1.70;;;18.70;99.90;;;;;;5051909;28;20041;-74
2021/08/09 08:37:18;;;;;;;4.90;1.83;;;18.90;99.90;;;;;;5056750;28;20036;-74
2021/08/09 08:39:44;;;;;;;7.75;1.33;;;18.90;99.90;;;;;;5052693;28;20051;-73
2021/08/09 08:42:13;;;;;;;5.88;1.25;;;19.00;99.90;;;;;;5055642;28;20029;-74
2021/08/09 08:44:38;;;;;;;5.93;1.10;;;19.10;99.90;;;;;;5049357;28;20108;-73
2021/08/09 08:47:04;;;;;;;10.15;1.92;;;19.20;99.90;;;;;;5054502;28;20108;-73
2021/08/09 08:49:31;;;;;;;5.93;1.30;;;19.20;99.90;;;;;;5053929;28;20068;-73
2021/08/09 08:51:57;;;;;;;10.82;1.67;;;19.30;99.90;;;;;;5053397;28;20025;-73
2021/08/09 08:54:22;;;;;;;5.05;1.50;;;19.30;99.90;;;;;;5053084;28;20024;-73
2021/08/09 08:56:48;;;;;;;4.03;1.45;;;19.40;99.90;;;;;;5052579;28;20078;-73
2021/08/09 08:59:15;;;;;;;6.70;1.65;;;19.40;99.90;;;;;;5054196;28;20571;-74
2021/08/09 09:01:43;;;;;;;10.57;2.33;;;19.40;99.90;;;;;;5053038;28;20024;-75
2021/08/09 09:04:26;;;;;;;7.65;1.27;;;19.40;99.90;;;;;;5052571;28;20017;-73
2021/08/09 09:07:04;;;;;;;9.70;1.52;;;19.40;99.90;;;;;;5053288;28;20469;-74
2021/08/09 09:09:30;;;;;;;;;;;19.40;99.90;;;;;;5048346;28;20021;-74
2021/08/09 09:11:56;;;;;;;2.22;1.40;;;19.30;99.90;;;;;;5054291;28;20008;-74
2021/08/09 09:14:31;;;;;;;5.57;1.77;;;19.30;99.90;;;;;;5052357;28;20170;-74
2021/08/09 09:16:57;;;;;;;7.90;1.73;;;19.30;99.90;;;;;;5052058;28;20078;-74
2021/08/09 09:19:35;;;;;;;4.07;1.30;;;19.40;99.90;;;;;;5051809;28;20028;-75
2021/08/09 09:22:05;;;;;;;;;;;19.50;99.90;;;;;;5053480;28;20159;-74
2021/08/09 09:24:31;;;;;;;4.30;1.40;;;19.60;99.90;;;;;;5052472;28;19955;-74
2021/08/09 09:27:02;;;;;;;3.88;1.42;;;19.60;99.90;;;;;;5053212;28;20485;-74
2021/08/09 09:29:38;;;;;;;6.95;2.00;;;19.50;99.90;;;;;;5057188;28;20489;-75
2021/08/09 09:32:20;;;;;;;4.38;1.30;;;19.40;99.90;;;;;;5054511;28;20116;-76
2021/08/09 09:34:51;;;;;;;3.33;1.10;;;19.50;99.90;;;;;;5055447;28;20496;-75
2021/08/09 09:37:37;;;;;;;6.78;1.40;;;19.50;99.90;;;;;;5057497;28;20053;-77
2021/08/09 09:40:08;;;;;;;3.90;1.40;;;19.70;99.90;;;;;;5057920;28;20104;-75
2021/08/09 09:42:36;;;;;;;3.50;1.27;;;19.80;99.90;;;;;;5057258;28;20756;-75
2021/08/09 09:45:29;;;;;;;3.38;1.33;;;20.00;99.90;;;;;;5056074;28;20032;-76
2021/08/09 09:48:04;;;;;;;4.30;1.23;;;20.00;99.90;;;;;;5056073;28;20515;-75
2021/08/09 09:50:31;;;;;;;3.28;1.20;;;20.10;99.90;;;;;;5057929;28;20471;-74
2021/08/09 09:52:57;;;;;;;6.72;2.30;;;20.20;99.90;;;;;;5060199;28;20104;-76
2021/08/09 09:55:22;;;;;;;2.53;1.65;;;20.20;99.90;;;;;;5051440;28;20083;-74
2021/08/09 09:57:48;;;;;;;5.50;1.20;;;20.20;99.90;;;;;;5052331;28;20039;-74
2021/08/09 10:00:16;;;;;;;5.13;1.30;;;20.30;99.90;;;;;;5053984;28;20041;-74
2021/08/09 10:02:47;;;;;;;3.42;1.42;;;20.40;99.90;;;;;;5053556;28;20032;-76
2021/08/09 10:05:14;;;;;;;8.02;1.70;;;20.40;99.90;;;;;;5052993;28;20388;-74
2021/08/09 10:07:41;;;;;;;4.93;1.13;;;20.20;99.90;;;;;;5052148;28;20013;-74
2021/08/09 10:10:09;;;;;;;3.30;1.38;;;20.20;99.90;;;;;;5054412;28;20120;-73
2021/08/09 10:12:36;;;;;;;8.77;1.58;;;20.10;99.90;;;;;;5050540;28;20079;-74
2021/08/09 10:15:02;;;;;;;4.53;1.45;;;20.10;99.90;;;;;;5051769;28;20033;-74
2021/08/09 10:17:30;;;;;;;4.72;1.80;;;20.10;99.90;;;;;;5051609;28;20029;-74
2021/08/09 10:20:05;;;;;;;8.52;2.03;;;20.10;99.90;;;;;;5053263;28;20484;-74
2021/08/09 10:22:31;;;;;;;5.18;1.70;;;20.10;99.90;;;;;;5055876;28;20059;-74
2021/08/09 10:24:57;;;;;;;4.20;1.50;;;20.10;99.90;;;;;;5057570;28;20052;-74
2021/08/09 10:27:48;;;;;;;4.18;1.60;;;20.20;99.90;;;;;;5056666;28;20032;-75
2021/08/09 10:30:14;;;;;;;6.10;1.60;;;20.20;99.90;;;;;;5053923;28;20025;-73
2021/08/09 10:32:44;;;;;;;5.15;1.45;;;20.20;99.90;;;;;;5056180;28;20035;-74
2021/08/09 10:35:43;;;;;;;5.95;1.52;;;20.20;99.90;;;;;;5055182;28;20166;-74
2021/08/09 10:38:17;;;;;;;4.90;1.25;;;20.20;99.90;;;;;;5054377;28;20124;-74
2021/08/09 10:40:47;;;;;;;4.57;1.60;;;20.20;99.90;;;;;;5055693;28;20029;-74
2021/08/09 10:43:14;;;;;;;3.53;1.30;;;20.00;99.90;;;;;;5056366;28;20044;-75
2021/08/09 10:45:45;;;;;;;6.43;1.40;;;19.90;99.90;;;;;;5056740;28;20086;-75
2021/08/09 10:48:12;;;;;;;7.15;1.33;;;19.70;99.90;;;;;;5054841;28;20052;-74
2021/08/09 10:50:41;;;;;;;4.40;1.40;;;19.60;99.90;;;;;;5052771;28;20029;-73
2021/08/09 10:53:25;;;;;;;2.25;1.27;;;19.60;99.90;;;;;;5051213;28;20029;-74
2021/08/09 10:55:55;;;;;;;3.70;1.40;;;19.50;99.90;;;;;;5056474;28;20068;-75
2021/08/09 10:58:42;;;;;;;6.85;2.40;;;19.50;99.90;;;;;;5053741;28;20086;-74
2021/08/09 11:01:09;;;;;;;4.40;1.38;;;19.50;99.90;;;;;;5054531;28;20036;-77
2021/08/09 11:03:55;;;;;;;5.43;1.67;;;19.60;99.90;;;;;;5053796;28;20527;-74
2021/08/09 11:06:57;;;;;;;4.45;1.60;;;19.50;99.90;;;;;;5054323;28;20028;-74
2021/08/09 11:09:32;;;;;;;4.22;1.60;;;19.40;99.90;;;;;;5052586;28;20028;-74
2021/08/09 11:12:21;;;;;;;7.63;1.40;;;19.30;99.90;;;;;;5062294;28;20429;-74
2021/08/09 11:15:11;;;;;;;5.97;2.22;;;19.40;99.90;;;;;;5066690;28;20377;-73
2021/08/09 11:17:37;;;;;;;5.57;1.48;;;19.50;99.90;;;;;;5054557;28;20039;-76
2021/08/09 11:20:13;;;;;;;5.60;1.65;;;19.60;99.90;;;;;;5054557;28;20033;-73
2021/08/09 11:22:40;;;;;;;2.58;1.33;;;19.80;99.90;;;;;;5055812;28;20559;-74
2021/08/09 11:25:27;;;;;;;5.88;1.75;;;19.90;99.90;;;;;;5053734;28;20107;-74
2021/08/09 11:28:01;;;;;;;;;;;20.10;99.90;;;;;;5055837;28;20037;-74
2021/08/09 11:30:55;;;;;;;2.88;1.60;;;20.40;99.90;;;;;;5039276;28;19913;-73
2021/08/09 11:33:25;;;;;;;4.38;1.63;;;20.60;99.90;;;;;;5048146;28;20037;-73
2021/08/09 11:35:51;;;;;;;5.47;1.50;;;20.60;99.90;;;;;;5070441;28;20147;-75
2021/08/09 11:38:18;;;;;;;2.97;1.55;;;20.60;99.90;;;;;;5054434;28;20023;-73
2021/08/09 11:40:49;;;;;;;3.65;1.98;;;20.60;99.90;;;;;;5053923;28;20021;-74
2021/08/09 11:43:21;;;;;;;5.78;1.95;;;20.50;99.90;;;;;;5054955;28;20025;-73
2021/08/09 11:45:47;;;;;;;4.45;1.52;;;20.30;99.90;;;;;;5050237;28;20029;-74
2021/08/09 11:48:13;;;;;;;5.68;2.00;;;20.10;99.90;;;;;;5054503;28;20029;-74
2021/08/09 11:50:40;;;;;;;3.60;1.80;;;19.90;99.90;;;;;;5053130;28;20074;-75
2021/08/09 11:53:07;;;;;;;3.80;1.48;;;19.80;99.90;;;;;;5052736;28;20404;-74
2021/08/09 11:55:34;;;;;;;4.93;1.73;;;19.70;99.90;;;;;;5053799;28;20412;-74
2021/08/09 11:57:59;;;;;;;3.60;1.50;;;19.80;99.90;;;;;;5053416;28;20608;-74
2021/08/09 12:00:36;;;;;;;5.75;1.63;;;19.90;99.90;;;;;;5054873;28;20039;-73
2021/08/09 12:03:19;;;;;;;4.65;1.77;;;20.00;99.90;;;;;;5054532;28;20036;-74
2021/08/09 12:05:44;;;;;;;4.88;1.65;;;20.10;99.90;;;;;;5058725;28;20024;-74
2021/08/09 12:08:11;;;;;;;5.13;1.63;;;20.50;99.90;;;;;;5056421;28;20484;-74
2021/08/09 12:10:38;;;;;;;1.77;1.25;;;20.80;99.90;;;;;;5057105;28;20060;-76
2021/08/09 12:13:21;;;;;;;2.17;1.38;;;20.90;99.90;;;;;;5054536;28;20091;-74
2021/08/09 12:16:10;;;;;;;2.22;1.63;;;20.90;99.90;;;;;;5065620;28;20033;-73
2021/08/09 12:18:38;;;;;;;3.40;1.20;;;21.30;99.90;;;;;;5051062;28;20025;-74
2021/08/09 12:21:12;;;;;;;3.80;1.52;;;21.40;99.90;;;;;;5054484;28;20373;-75
2021/08/09 12:23:55;;;;;;;4.28;1.33;;;21.60;99.90;;;;;;5053249;28;20021;-74
2021/08/09 12:26:28;;;;;;;2.92;2.13;;;21.90;99.90;;;;;;5053301;28;20102;-74
2021/08/09 12:31:45;;;;;;;4.55;1.38;;;21.90;99.90;;;;;;5049702;28;20044;-74
2021/08/09 12:34:12;;;;;;;3.42;1.75;;;22.00;99.90;;;;;;5053684;28;20110;-73
2021/08/09 12:36:38;;;;;;;5.03;1.42;;;22.00;99.90;;;;;;5054550;28;20043;-74
2021/08/09 12:39:06;;;;;;;4.80;2.10;;;22.20;99.90;;;;;;5053769;28;20028;-75
2021/08/09 12:41:34;;;;;;;2.25;1.38;;;22.40;99.90;;;;;;5053606;28;20024;-74
2021/08/09 12:44:03;;;;;;;4.38;1.40;;;22.50;99.90;;;;;;5053317;28;20427;-77
2021/08/09 12:46:29;;;;;;;4.13;1.40;;;22.30;99.90;;;;;;5056748;28;20028;-76
2021/08/09 12:48:56;;;;;;;2.05;1.35;;;22.40;99.90;;;;;;5054067;28;20024;-75
2021/08/09 12:51:22;;;;;;;3.95;1.30;;;22.30;99.90;;;;;;5054218;28;20104;-75
2021/08/09 12:53:47;;;;;;;4.38;1.38;;;22.30;99.90;;;;;;5053533;28;20452;-73